Weather observations for the past three days for
El Dorado Captain Jack Thomas Airport
Metric (Imperial)
Date Time (cdt) Wind (kph) Vis. (km) Weather Sky Cond. Temperature (ºC) Relative Humidity Wind Chill (°C) Heat Index (°C) Pressure Precipitation (cm)
Air Dwpt 6 hour altimeter (cm) sea level (mb) 1 hr 3 hr 6 hr
Max. Min.
06 03:35 NE 19 16.09 Light Rain SCT043 BKN050 OVC065 7 5 87% 4 76.25 0.0 0.03
06 03:15 NE 19 G 30 16.09 Overcast OVC065 7 5 87% 4 76.23 0.0
06 02:55 NE 20 G 35 16.09 Light Rain BKN075 OVC080 7 5 87% 4 76.15 0.0 0.03
06 02:35 NE 22 16.09 Light Rain SCT039 OVC085 7 5 87% 4 76.15 0.0 0.03
06 02:15 N 22 G 30 16.09 Light Rain BKN039 BKN050 OVC065 8 5 82% 5 76.17 0.0
06 01:55 N 22 16.09 Light Rain OVC065 8 5 82% 5 76.17 0.0 0.03
06 01:35 NE 24 16.09 Light Rain OVC065 8 4 76% 5 76.12 0.0
06 00:55 N 26 G 37 16.09 Overcast OVC065 10 4 67% 7 76.1 0.0
06 00:35 N 22 G 30 16.09 Overcast OVC065 10 2 58% 7 76.12 0.0
06 00:15 N 22 G 35 16.09 Overcast OVC065 11 2 54% 76.1 0.0
05 23:55 NE 20 G 33 16.09 Overcast OVC065 11 2 54% 76.07 0.0
05 23:35 N 17 G 30 16.09 Overcast OVC065 11 3 58% 76.1 0.0
05 23:15 NE 24 G 33 16.09 Overcast OVC065 11 3 58% 76.07 0.0
05 22:55 N 11 16.09 Overcast OVC065 11 3 58% 76.12 0.0
05 22:35 NE 15 16.09 Overcast OVC065 11 3 58% 76.1 0.0
05 22:15 N 19 G 30 16.09 Overcast SCT029 SCT035 OVC065 11 5 67% 76.1 0.0
05 21:55 N 13 16.09 Overcast SCT029 SCT035 OVC065 10 7 82% 8 76.1 0.0
05 21:35 N 15 16.09 Light Rain OVC065 10 7 82% 8 76.05 0.0
05 21:15 N 9 16.09 Overcast OVC065 11 6 72% 76.02 0.0
05 20:55 Calm 16.09 Overcast OVC065 11 7 77% 76 0.0
05 20:35 NE 7 16.09 Overcast OVC065 11 7 77% 75.95 0.0
05 20:15 Calm 16.09 Overcast OVC065 11 7 77% 75.95 0.0
05 19:55 NE 6 16.09 Overcast OVC065 11 6 72% 75.95 0.0
05 19:35 NE 11 16.09 Overcast OVC065 11 6 72% 75.9 0.0
05 19:15 NE 13 16.09 Overcast OVC065 11 6 72% 75.9 0.0
05 18:55 NE 17 16.09 Overcast OVC065 11 6 72% 75.92 0.0
05 18:35 NE 17 16.09 Overcast OVC065 11 6 72% 75.9 0.0
05 18:15 NE 17 16.09 Overcast OVC065 11 6 72% 75.9 0.0
05 17:55 NE 15 16.09 Overcast OVC065 11 6 72% 75.9 0.0
05 17:35 NE 19 16.09 Overcast OVC065 10 6 76% 8 75.87 0.0
05 17:15 NE 17 16.09 Light Rain OVC055 10 6 76% 8 75.9 0.0
05 16:55 NE 17 G 22 16.09 Overcast SCT020 OVC055 11 5 67% 75.92 0.0
05 16:35 NE 22 G 33 16.09 Overcast SCT020 SCT049 OVC055 11 5 67% 75.92 0.0
05 16:15 NE 24 16.09 Overcast SCT020 SCT025 OVC055 11 5 67% 75.92 0.0
05 15:55 NE 28 16.09 Overcast OVC055 11 4 62% 75.92 0.0
05 15:35 NE 31 G 43 16.09 Overcast SCT021 BKN045 OVC055 11 4 62% 75.92 0.0
05 15:15 NE 28 G 37 16.09 Overcast BKN021 BKN042 OVC050 11 5 67% 75.92 0.0
05 14:55 NE 31 G 41 16.09 Overcast SCT042 OVC050 11 5 67% 75.92 0.0
05 14:35 NE 28 G 41 16.09 Overcast OVC050 11 4 62% 75.92 0.0
05 14:15 NE 31 G 54 16.09 Overcast OVC050 11 3 58% 75.9 0.0
05 13:55 NE 43 G 54 16.09 Overcast and Windy OVC050 11 2 54% 75.87 0.0
05 13:35 NE 33 G 44 16.09 Overcast and Breezy OVC050 12 4 58% 75.87 0.0
05 13:15 NE 37 G 46 16.09 Overcast and Breezy OVC050 11 4 62% 75.87 0.0
05 12:55 NE 41 G 46 16.09 Overcast and Breezy OVC050 12 4 58% 75.9 0.0
05 12:35 NE 28 G 46 16.09 Overcast OVC050 11 4 62% 75.9 0.0
05 12:15 NE 37 G 50 16.09 Overcast and Breezy OVC050 11 3 58% 75.9 0.0
05 11:55 NE 41 G 52 16.09 Overcast and Breezy OVC050 11 3 58% 75.87 0.0
05 11:35 NE 30 G 52 16.09 Overcast OVC050 12 3 54% 75.87 0.0
05 11:15 NE 39 G 52 16.09 Overcast and Breezy OVC050 12 4 58% 75.84 0.0
05 10:55 NE 41 G 54 16.09 Overcast and Breezy OVC050 11 4 62% 75.79 0.0
05 10:35 NE 35 G 50 16.09 Overcast and Breezy OVC050 11 3 58% 75.79 0.0
05 10:15 NE 37 G 52 16.09 Overcast and Breezy OVC050 11 3 58% 75.79 0.0
05 09:55 NE 37 G 48 16.09 Overcast and Breezy OVC050 11 4 62% 75.79 0.0
05 09:35 NE 31 G 43 16.09 Overcast OVC050 11 3 58% 75.79 0.0
05 09:15 NE 39 G 54 16.09 Overcast and Breezy OVC050 11 3 58% 75.74 0.0
05 08:55 NE 33 G 48 16.09 Overcast and Breezy OVC050 11 3 58% 75.74 0.0
05 08:35 NE 41 G 54 16.09 Overcast and Breezy OVC050 11 4 62% 75.69 0.0
05 08:15 NE 35 G 48 16.09 Overcast and Breezy OVC048 11 3 58% 75.69 0.0
05 07:55 NE 39 G 44 16.09 Overcast and Breezy OVC048 11 3 58% 75.69 0.0
05 07:35 NE 37 G 52 16.09 Overcast and Breezy OVC046 11 3 58% 75.67 0.0
05 07:15 NE 37 G 46 16.09 Overcast and Breezy BKN046 OVC050 12 4 58% 75.64 0.0
05 06:55 NE 33 G 43 16.09 Overcast and Breezy OVC050 12 4 58% 75.62 0.0
05 06:35 NE 31 G 43 16.09 Overcast SCT040 OVC050 12 5 63% 75.54 0.0
05 06:15 NE 37 G 52 16.09 Overcast and Breezy BKN037 OVC042 12 4 58% 75.54 0.0
05 05:55 NE 35 G 56 16.09 Overcast and Breezy OVC035 12 5 63% 75.49 0.0
05 05:35 NE 39 G 50 16.09 Overcast and Breezy OVC035 12 5 63% 75.49 0.0
05 05:15 NE 41 G 50 16.09 Overcast and Breezy OVC033 12 5 63% 75.49 0.0
05 04:55 NE 30 G 41 16.09 Overcast OVC033 12 6 67% 75.49 0.0
05 04:35 NE 39 G 48 16.09 Overcast and Breezy BKN031 OVC038 12 6 67% 75.49 0.0
05 04:15 NE 37 G 52 16.09 Overcast and Breezy SCT031 OVC038 13 6 63% 75.46 0.0
05 03:55 NE 39 G 48 16.09 Overcast and Breezy OVC040 13 7 67% 75.44 0.0
05 03:35 NE 31 G 48 16.09 Overcast OVC040 14 7 63% 75.39 0.0
05 03:15 NE 28 G 41 16.09 Overcast OVC038 14 8 67% 75.41 0.0
05 02:55 NE 26 G 37 16.09 Light Rain OVC036 15 10 72% 75.44 0.0
05 02:35 E 20 16.09 Overcast OVC034 16 10 68% 75.36 0.0
05 02:15 NE 22 G 30 16.09 Overcast OVC036 16 12 77% 75.36 0.0
05 01:55 NE 28 G 33 16.09 Overcast OVC036 16 12 77% 75.31 0.0
05 01:35 NE 26 16.09 Mostly Cloudy BKN038 BKN070 BKN095 17 12 73% 75.34 0.0
05 01:15 E 15 16.09 Light Rain BKN042 BKN049 BKN070 20 16 78% 75.29 0.0
05 00:55 N 15 16.09 Mostly Cloudy SCT042 SCT055 BKN065 18 16 88% 75.26 0.0
05 00:35 Calm 16.09 Fair CLR 18 15 83% 75.26 0.0
05 00:15 SE 11 16.09 Fair CLR 20 15 73% 75.21 0.0
04 23:55 S 11 16.09 Fair CLR 20 15 73% 75.21 0.0
04 23:35 SE 11 16.09 Fair CLR 20 16 78% 75.21 0.0
04 23:15 SE 19 16.09 Fair CLR 21 16 73% 75.18 0.0
04 22:55 SE 11 16.09 Fair CLR 21 16 73% 75.21 0.0
04 22:35 SE 13 16.09 Fair CLR 22 15 65% 75.21 0.0
04 22:15 S 17 16.09 Fair CLR 22 15 65% 75.23 0.0
04 21:55 S 13 16.09 Fair CLR 22 15 65% 75.26 0.0
04 21:35 S 15 16.09 Fair CLR 22 15 65% 75.26 0.0
04 21:15 SE 7 16.09 Fair CLR 22 15 65% 75.23 0.0
04 20:55 S 9 16.09 Fair CLR 23 14 57% 75.18 0.0
04 20:35 S 15 16.09 Fair CLR 23 13 53% 75.16 0.0
04 20:15 S 17 16.09 Fair CLR 23 13 53% 75.13 0.0
04 19:55 S 15 16.09 Fair CLR 24 13 50% 25 75.13 0.0
04 19:35 S 15 16.09 Fair CLR 25 13 47% 26 75.16 0.0
04 19:15 S 15 16.09 Fair CLR 26 12 42% 26 75.16 0.0
04 18:55 S 22 16.09 Fair CLR 26 12 42% 26 75.16 0.0
04 18:35 S 22 G 30 16.09 Fair CLR 26 12 42% 26 75.18 0.0
04 18:15 S 20 16.09 Fair CLR 26 12 42% 26 75.18 0.0
04 17:55 S 20 G 33 16.09 Fair CLR 27 12 39% 27 75.16 0.0
04 17:35 S 24 G 30 16.09 Fair CLR 27 12 39% 27 75.16 0.0
04 17:15 S 22 G 33 16.09 Fair CLR 28 12 37% 27 75.16 0.0
04 16:55 S 28 G 33 16.09 Fair CLR 28 12 37% 27 75.16 0.0
04 16:35 S 24 G 33 16.09 Fair CLR 28 11 35% 27 75.18 0.0
04 16:15 S 22 16.09 Fair CLR 28 11 35% 27 75.18 0.0
04 15:55 S 20 G 30 16.09 Fair CLR 29 12 35% 28 75.18 0.0
04 15:35 S 20 G 26 16.09 Fair CLR 30 11 31% 29 75.21 0.0
04 15:15 SW 17 16.09 Fair CLR 30 12 33% 29 75.23 0.0
04 14:55 SW 13 16.09 Fair CLR 28 11 35% 27 75.26 0.0
04 14:35 SW 17 16.09 Fair CLR 29 11 33% 28 75.29 0.0
04 14:15 SW 17 G 28 16.09 Fair CLR 29 11 33% 28 75.31 0.0
04 13:55 SW 13 G 30 16.09 Fair CLR 28 11 35% 27 75.31 0.0
04 13:35 S 19 16.09 Fair CLR 28 11 35% 27 75.31 0.0
04 13:15 SW 15 16.09 Fair CLR 27 11 37% 27 75.34 0.0
04 12:55 SW 15 16.09 Fair CLR 27 11 37% 27 75.34 0.0
04 12:35 SW 19 16.09 Fair CLR 26 10 37% 26 75.36 0.0
04 12:15 SW 19 16.09 Fair CLR 27 10 34% 27 75.36 0.0
04 11:55 SW 17 16.09 Fair CLR 25 11 42% 26 75.36 0.0
04 11:35 SW 24 16.09 Fair CLR 24 10 41% 25 75.39 0.0
04 11:15 SW 22 16.09 Fair CLR 24 10 41% 25 75.36 0.0
04 10:55 SW 28 G 39 16.09 Fair CLR 23 9 41% 75.36 0.0
04 10:35 SW 22 G 37 16.09 Fair CLR 23 10 44% 75.34 0.0
04 10:15 SW 30 G 37 16.09 Fair CLR 23 9 41% 75.36 0.0
04 09:55 SW 26 G 31 16.09 Fair CLR 21 9 46% 75.36 0.0
04 09:35 SW 26 G 35 16.09 Fair CLR 21 8 43% 75.36 0.0
04 09:15 SW 31 G 39 16.09 Fair CLR 21 8 43% 75.39 0.0
04 08:55 SW 28 G 37 16.09 Fair CLR 20 8 46% 75.39 0.0
04 08:35 SW 31 G 39 16.09 Fair CLR 20 8 46% 75.39 0.0
04 08:15 SW 28 G 41 16.09 Fair CLR 20 7 43% 75.39 0.0
04 07:55 SW 30 G 41 16.09 Fair CLR 19 7 46% 75.39 0.0
04 07:35 SW 26 G 39 16.09 Fair CLR 18 7 49% 75.36 0.0
04 07:15 S 31 16.09 Fair CLR 18 7 49% 75.36 0.0
04 06:55 SW 28 G 37 16.09 Fair CLR 18 7 49% 75.36 0.0
04 06:35 SW 26 G 35 16.09 Fair CLR 18 7 49% 75.36 0.0
04 06:15 SW 28 G 39 16.09 Fair CLR 18 7 49% 75.39 0.0
04 05:55 SW 31 G 39 16.09 Fair CLR 18 6 46% 75.39 0.0
04 05:35 SW 28 G 39 16.09 Fair CLR 19 6 43% 75.41 0.0
04 05:15 SW 30 G 41 16.09 Fair CLR 19 6 43% 75.41 0.0
04 04:55 SW 28 G 37 16.09 Fair CLR 19 6 43% 75.44 0.0
04 04:35 SW 30 G 39 16.09 Fair CLR 20 6 40% 75.46 0.0
04 04:15 SW 31 G 41 16.09 Fair CLR 20 6 40% 75.46 0.0
04 03:55 SW 31 G 43 16.09 Fair CLR 20 5 38% 75.46 0.0
04 03:35 SW 31 G 43 16.09 Fair CLR 20 5 38% 75.49 0.0
04 03:15 SW 30 G 39 16.09 Fair CLR 20 5 38% 75.49 0.0
04 02:55 S 30 G 37 16.09 Fair CLR 20 6 40% 75.49 0.0
04 02:35 S 31 G 41 16.09 Fair CLR 20 6 40% 75.54 0.0
04 02:15 S 24 G 35 16.09 Fair CLR 20 6 40% 75.54 0.0
04 01:55 S 30 G 41 16.09 Fair CLR 20 6 40% 75.57 0.0
04 01:35 S 26 G 41 16.09 Fair CLR 20 6 40% 75.59 0.0
04 01:15 SW 30 G 44 16.09 Fair CLR 21 5 35% 75.62 0.0
04 00:55 S 30 G 41 16.09 Fair CLR 21 5 35% 75.62 0.0
04 00:35 S 28 G 46 16.09 Fair CLR 21 5 35% 75.62 0.0
04 00:15 S 30 G 37 16.09 Fair CLR 22 5 33% 75.62 0.0
03 23:55 S 30 G 39 16.09 Fair CLR 22 4 31% 75.62 0.0
03 23:35 S 26 G 39 16.09 Fair CLR 22 4 31% 75.62 0.0
03 23:15 S 24 G 35 16.09 Fair CLR 22 4 31% 75.62 0.0
03 22:55 S 26 G 35 16.09 Fair CLR 22 5 33% 75.64 0.0
03 22:35 S 28 G 37 16.09 Fair CLR 22 5 33% 75.64 0.0
03 22:15 S 22 16.09 Fair CLR 22 5 33% 75.64 0.0
03 21:55 S 20 16.09 Fair CLR 22 5 33% 75.62 0.0
03 21:35 S 20 16.09 Fair CLR 22 5 33% 75.62 0.0
03 21:15 S 19 16.09 Fair CLR 22 5 33% 75.62 0.0
03 20:55 S 17 16.09 Fair CLR 22 5 33% 75.62 0.0
03 20:35 S 15 16.09 Fair CLR 22 3 29% 75.62 0.0
03 20:15 S 13 16.09 Fair CLR 23 2 25% 75.62 0.0
03 19:55 S 19 16.09 Fair CLR 26 0 18% 25 75.62 0.0
03 19:35 SW 20 G 30 16.09 Fair CLR 26 0 18% 25 75.62 0.0
03 19:15 SW 19 16.09 Fair CLR 27 1 18% 26 75.64 0.0
03 18:55 SW 26 G 33 16.09 Fair CLR 28 0 16% 27 75.64 0.0
03 18:35 SW 22 16.09 Fair CLR 29 1 16% 27 75.67 0.0
03 18:15 SW 30 G 35 16.09 Fair CLR 29 0 15% 27 75.67 0.0
03 17:55 SW 30 G 37 16.09 Fair CLR 29 0 15% 27 75.67 0.0
03 17:35 SW 22 G 35 16.09 Fair CLR 29 0 15% 27 75.67 0.0
03 17:15 SW 28 G 41 16.09 Fair CLR 30 0 14% 28 75.69 0.0
03 16:55 SW 30 G 39 16.09 Fair CLR 30 -1 13% 28 75.74 0.0
03 16:35 SW 22 G 31 16.09 Fair CLR 29 0 15% 27 75.77 0.0
03 16:15 SW 24 16.09 Fair CLR 29 -1 14% 27 75.79 0.0
03 15:55 SW 30 G 37 16.09 Fair CLR 30 0 14% 28 75.79 0.0
03 15:35 SW 28 G 37 16.09 Fair CLR 29 0 15% 27 75.84 0.0
03 15:15 SW 31 G 39 16.09 Fair CLR 29 -1 14% 27 75.84 0.0
03 14:55 SW 20 G 41 16.09 Fair CLR 30 0 14% 28 75.87 0.0
03 14:35 SW 26 G 37 16.09 Fair CLR 30 2 17% 28 75.9 0.0
03 13:55 SW 30 G 44 16.09 Fair CLR 29 3 19% 27 75.92 0.0
03 13:35 W 26 G 35 16.09 Fair CLR 28 4 21% 27 75.97 0.0
03 13:15 W 26 16.09 Fair CLR 28 5 23% 27 76 0.0
03 12:55 SW 20 G 30 16.09 Fair CLR 27 5 24% 26 76.02 0.0
03 12:35 SW 24 G 35 16.09 Fair CLR 27 6 26% 26 76.05 0.0
03 12:15 W 22 G 28 16.09 Fair CLR 26 7 30% 26 76.07 0.0
03 11:55 SW 22 16.09 Fair CLR 25 7 32% 25 76.1 0.0
03 11:35 SW 20 G 31 16.09 Fair CLR 24 6 31% 25 76.1 0.0
03 11:15 SW 20 16.09 Fair CLR 23 8 38% 76.12 0.0
03 10:55 SW 20 G 30 16.09 Fair CLR 22 7 38% 76.12 0.0
03 10:35 SW 24 G 31 16.09 Fair CLR 21 7 40% 76.12 0.0
03 10:15 SW 26 G 33 16.09 Fair CLR 20 7 43% 76.12 0.0
03 09:55 S 28 G 33 16.09 Fair CLR 19 7 46% 76.15 0.0
03 09:35 SW 28 G 39 16.09 Fair CLR 18 6 46% 76.17 0.0
03 09:15 SW 26 G 31 16.09 Fair CLR 17 6 49% 76.17 0.0
03 08:55 SW 24 G 31 16.09 Fair CLR 16 6 52% 76.2 0.0
03 08:35 SW 20 G 28 16.09 Fair CLR 15 6 55% 76.2 0.0
03 08:15 S 19 16.09 Fair CLR 14 5 55% 76.2 0.0
03 07:55 S 20 16.09 Fair CLR 13 5 59% 76.2 0.0
03 07:15 S 11 16.09 Fair CLR 11 5 67% 76.2 0.0
03 06:55 S 13 16.09 Fair CLR 10 4 67% 8 76.2 0.0
03 06:15 S 15 16.09 Fair CLR 10 3 62% 8 76.2 0.0
03 05:55 S 15 16.09 Fair CLR 10 3 62% 8 76.2 0.0
03 05:35 S 15 16.09 Fair CLR 10 3 62% 8 76.23 0.0
03 05:15 S 15 16.09 Fair CLR 10 3 62% 8 76.23 0.0
03 04:55 S 17 16.09 Fair CLR 10 3 62% 8 76.25 0.0
03 04:35 S 15 16.09 Fair CLR 10 3 62% 8 76.28 0.0
03 04:15 S 15 16.09 Fair CLR 10 3 62% 8 76.28 0.0
03 03:55 S 13 16.09 Fair CLR 9 3 66% 7 76.28 0.0
Date Time (cdt) Wind (kph) Vis. (km) Weather Sky Cond. Air Dwpt Max. Min. Relative Humidity Wind Chill (°C) Heat Index (°C) altimeter (cm) sea level (mb) 1 hr 3 hr 6 hr
6 hour
Temperature (ºC) Pressure Precipitation (cm)